Time;durP1;ratioP1;P1;durP2;ratioP2;P2;SDS_P1;SDS_P2;PMS_P1;PMS_P2;Temp;Humidity;BMP_temperature;BMP_pressure;BME280_temperature;BME280_humidity;BME280_pressure;Samples;Min_cycle;Max_cycle;Signal;HPM_P1;HPM_P2
2022/03/06 00:00:49;;;;;;;25.10;14.17;;;;;;;;;;5113314;28;20440;-50
2022/03/06 00:03:15;;;;;;;19.07;12.70;;;;;;;;;;5113404;28;20470;-55
2022/03/06 00:05:41;;;;;;;24.50;14.87;;;;;;;;;;5113553;28;20409;-56
2022/03/06 00:08:07;;;;;;;20.73;13.20;;;;;;;;;;5113572;28;20499;-57
2022/03/06 00:10:34;;;;;;;22.47;13.13;;;;;;;;;;5113258;28;20416;-53
2022/03/06 00:13:00;;;;;;;22.30;13.50;;;;;;;;;;5113137;28;20913;-53
2022/03/06 00:15:26;;;;;;;18.80;12.90;;;;;;;;;;5112003;28;20475;-56
2022/03/06 00:17:55;;;;;;;19.77;13.03;;;;;;;;;;5113547;28;20432;-55
2022/03/06 00:20:21;;;;;;;18.90;13.00;;;;;;;;;;5113184;28;20420;-53
2022/03/06 00:22:47;;;;;;;19.80;12.43;;;;;;;;;;5111827;28;20405;-53
2022/03/06 00:25:13;;;;;;;14.83;11.40;;;;;;;;;;5113119;28;20404;-51
2022/03/06 00:27:39;;;;;;;16.07;11.20;;;;;;;;;;5113049;28;20408;-54
2022/03/06 00:30:06;;;;;;;19.30;12.40;;;;;;;;;;5113099;28;20420;-54
2022/03/06 00:32:32;;;;;;;19.27;11.10;;;;;;;;;;5112974;28;20444;-56
2022/03/06 00:34:58;;;;;;;18.37;11.47;;;;;;;;;;5112946;28;20472;-55
2022/03/06 00:37:24;;;;;;;18.20;12.60;;;;;;;;;;5113248;28;20401;-53
2022/03/06 00:39:53;;;;;;;22.57;14.07;;;;;;;;;;5113048;28;20412;-51
2022/03/06 00:42:19;;;;;;;23.53;13.60;;;;;;;;;;5112972;28;20400;-55
2022/03/06 00:44:45;;;;;;;20.80;13.73;;;;;;;;;;5112881;28;20521;-60
2022/03/06 00:47:11;;;;;;;24.43;14.10;;;;;;;;;;5114048;28;20941;-55
2022/03/06 00:49:38;;;;;;;22.77;14.53;;;;;;;;;;5116995;28;20908;-57
2022/03/06 00:52:04;;;;;;;21.33;14.00;;;;;;;;;;5116438;28;20895;-53
2022/03/06 00:54:30;;;;;;;19.83;13.10;;;;;;;;;;5115041;28;20492;-55
2022/03/06 00:56:56;;;;;;;19.63;13.00;;;;;;;;;;5116600;28;20405;-51
2022/03/06 00:59:22;;;;;;;20.50;13.20;;;;;;;;;;5116448;28;20458;-53
2022/03/06 01:01:48;;;;;;;18.30;12.40;;;;;;;;;;5116265;28;20433;-53
2022/03/06 01:04:14;;;;;;;23.73;12.43;;;;;;;;;;5116211;28;20413;-55
2022/03/06 01:06:40;;;;;;;24.03;12.30;;;;;;;;;;5116393;28;20889;-57
2022/03/06 01:09:07;;;;;;;22.10;13.50;;;;;;;;;;5114965;28;20436;-52
2022/03/06 01:11:35;;;;;;;17.63;11.50;;;;;;;;;;5115337;28;20814;-54
2022/03/06 01:14:01;;;;;;;22.80;13.83;;;;;;;;;;5116023;28;20467;-55
2022/03/06 01:16:27;;;;;;;22.20;13.27;;;;;;;;;;5115978;28;20471;-53
2022/03/06 01:18:53;;;;;;;17.00;12.13;;;;;;;;;;5116285;28;20401;-55
2022/03/06 01:21:19;;;;;;;16.43;11.07;;;;;;;;;;5115966;28;20384;-55
2022/03/06 01:23:45;;;;;;;16.27;11.30;;;;;;;;;;5115970;28;20765;-55
2022/03/06 01:26:11;;;;;;;15.87;11.23;;;;;;;;;;5116070;28;20465;-53
2022/03/06 01:28:37;;;;;;;18.17;11.40;;;;;;;;;;5114758;28;20763;-53
2022/03/06 01:31:03;;;;;;;19.20;11.30;;;;;;;;;;5115738;28;20546;-55
2022/03/06 01:33:29;;;;;;;19.60;11.30;;;;;;;;;;5115785;28;20492;-62
2022/03/06 01:35:55;;;;;;;17.60;11.30;;;;;;;;;;5114454;28;20515;-55
2022/03/06 01:38:21;;;;;;;17.67;11.50;;;;;;;;;;5115770;28;20397;-56
2022/03/06 01:40:47;;;;;;;17.57;11.67;;;;;;;;;;5115626;28;20904;-53
2022/03/06 01:43:13;;;;;;;15.87;10.83;;;;;;;;;;5114265;28;20413;-53
2022/03/06 01:45:40;;;;;;;15.73;11.10;;;;;;;;;;5114099;28;20545;-53
2022/03/06 01:48:08;;;;;;;13.20;10.67;;;;;;;;;;5115754;28;20747;-54
2022/03/06 01:50:35;;;;;;;18.37;9.60;;;;;;;;;;5115345;28;20420;-56
2022/03/06 01:53:01;;;;;;;16.00;10.17;;;;;;;;;;5115340;28;20833;-56
2022/03/06 01:55:28;;;;;;;14.77;11.30;;;;;;;;;;5115103;28;20464;-56
2022/03/06 01:57:55;;;;;;;14.97;11.00;;;;;;;;;;5115236;28;20440;-55
2022/03/06 02:00:22;;;;;;;15.50;10.60;;;;;;;;;;5114501;28;20889;-54
2022/03/06 02:02:49;;;;;;;16.13;10.60;;;;;;;;;;5114968;28;20409;-53
2022/03/06 02:05:18;;;;;;;19.97;10.43;;;;;;;;;;5113592;28;20447;-52
2022/03/06 02:07:44;;;;;;;18.43;11.60;;;;;;;;;;5113620;28;20409;-55
2022/03/06 02:10:13;;;;;;;15.27;10.90;;;;;;;;;;5115109;28;20409;-52
2022/03/06 02:12:40;;;;;;;17.57;11.50;;;;;;;;;;5114979;28;20484;-53
2022/03/06 02:15:07;;;;;;;16.13;11.23;;;;;;;;;;5114671;28;20497;-53
2022/03/06 02:17:33;;;;;;;18.60;11.00;;;;;;;;;;5114972;28;20398;-52
2022/03/06 02:20:07;;;;;;;17.80;12.27;;;;;;;;;;5114917;28;20769;-52
2022/03/06 02:22:35;;;;;;;13.03;10.23;;;;;;;;;;5114675;28;20913;-53
2022/03/06 02:25:04;;;;;;;15.40;11.33;;;;;;;;;;5114953;28;20401;-55
2022/03/06 02:27:30;;;;;;;14.97;11.17;;;;;;;;;;5114756;28;20397;-55
2022/03/06 02:29:56;;;;;;;19.27;11.30;;;;;;;;;;5115206;28;20968;-57
2022/03/06 02:32:23;;;;;;;15.13;11.37;;;;;;;;;;5114815;28;20393;-52
2022/03/06 02:34:50;;;;;;;17.87;11.13;;;;;;;;;;5114468;28;20452;-56
2022/03/06 02:37:17;;;;;;;16.37;11.00;;;;;;;;;;5114452;28;20441;-53
2022/03/06 02:39:43;;;;;;;16.10;11.33;;;;;;;;;;5114574;28;20399;-53
2022/03/06 02:42:10;;;;;;;16.17;11.37;;;;;;;;;;5114447;28;20413;-52
2022/03/06 02:44:37;;;;;;;17.83;11.47;;;;;;;;;;5114388;28;20401;-53
2022/03/06 02:47:03;;;;;;;14.87;9.90;;;;;;;;;;5114453;28;20979;-52
2022/03/06 02:49:30;;;;;;;13.33;9.90;;;;;;;;;;5114353;28;20458;-54
2022/03/06 02:51:59;;;;;;;15.37;10.13;;;;;;;;;;5114709;28;20406;-53
2022/03/06 02:54:25;;;;;;;14.70;10.97;;;;;;;;;;5114520;28;20543;-53
2022/03/06 02:56:51;;;;;;;16.13;11.00;;;;;;;;;;5114095;28;20424;-57
2022/03/06 02:59:17;;;;;;;13.70;9.63;;;;;;;;;;5114139;28;20466;-56
2022/03/06 03:01:43;;;;;;;18.03;10.77;;;;;;;;;;5114050;28;20464;-56
2022/03/06 03:04:10;;;;;;;11.67;10.10;;;;;;;;;;5112745;28;20419;-55
2022/03/06 03:06:36;;;;;;;14.60;10.30;;;;;;;;;;5112709;28;20405;-54
2022/03/06 03:09:04;;;;;;;18.80;11.80;;;;;;;;;;5113859;28;20905;-51
2022/03/06 03:11:31;;;;;;;16.70;10.93;;;;;;;;;;5113775;28;20917;-59
2022/03/06 03:13:57;;;;;;;17.00;11.30;;;;;;;;;;5113569;28;20455;-54
2022/03/06 03:16:23;;;;;;;16.33;10.33;;;;;;;;;;5113895;28;20543;-55
2022/03/06 03:18:49;;;;;;;14.57;10.30;;;;;;;;;;5113577;28;20901;-54
2022/03/06 03:21:15;;;;;;;14.60;10.20;;;;;;;;;;5113564;28;20427;-51
2022/03/06 03:23:41;;;;;;;14.20;9.70;;;;;;;;;;5113778;28;20454;-60
2022/03/06 03:26:07;;;;;;;13.83;9.70;;;;;;;;;;5113561;28;20796;-58
2022/03/06 03:28:33;;;;;;;13.70;10.50;;;;;;;;;;5113625;28;20465;-55
2022/03/06 03:30:59;;;;;;;12.87;8.90;;;;;;;;;;5113428;28;20409;-54
2022/03/06 03:33:25;;;;;;;12.13;8.60;;;;;;;;;;5113578;28;20408;-54
2022/03/06 03:35:51;;;;;;;15.00;9.73;;;;;;;;;;5113514;28;20472;-54
2022/03/06 03:38:17;;;;;;;11.40;8.93;;;;;;;;;;5112027;28;20755;-57
2022/03/06 03:40:43;;;;;;;11.77;8.77;;;;;;;;;;5113311;28;20412;-54
2022/03/06 03:43:12;;;;;;;12.17;9.27;;;;;;;;;;5111915;28;20486;-57
2022/03/06 03:45:38;;;;;;;13.73;9.20;;;;;;;;;;5111868;28;20950;-56
2022/03/06 03:48:05;;;;;;;13.10;9.67;;;;;;;;;;5113369;28;20416;-61
2022/03/06 03:50:31;;;;;;;10.37;8.67;;;;;;;;;;5113156;28;20408;-55
2022/03/06 03:52:57;;;;;;;16.87;8.83;;;;;;;;;;5113169;28;20885;-54
2022/03/06 03:55:23;;;;;;;10.50;8.67;;;;;;;;;;5113247;28;20880;-55
2022/03/06 03:57:49;;;;;;;10.87;8.77;;;;;;;;;;5113188;28;20446;-61
2022/03/06 04:00:15;;;;;;;10.83;9.13;;;;;;;;;;5112918;28;20404;-58
2022/03/06 04:02:41;;;;;;;9.70;8.67;;;;;;;;;;5112929;28;20473;-57
2022/03/06 04:05:08;;;;;;;11.70;8.50;;;;;;;;;;5113066;28;20405;-57
2022/03/06 04:07:34;;;;;;;16.80;8.60;;;;;;;;;;5112776;28;20397;-59
2022/03/06 04:10:00;;;;;;;12.70;8.97;;;;;;;;;;5112727;28;20424;-60
2022/03/06 04:12:26;;;;;;;12.23;9.50;;;;;;;;;;5113014;28;20405;-55
2022/03/06 04:14:52;;;;;;;10.17;9.07;;;;;;;;;;5111370;28;20896;-57
2022/03/06 04:17:18;;;;;;;12.03;9.63;;;;;;;;;;5110872;28;20444;-59
2022/03/06 04:19:44;;;;;;;11.43;8.53;;;;;;;;;;5112828;28;20439;-57
2022/03/06 04:22:10;;;;;;;10.17;8.43;;;;;;;;;;5112254;28;20409;-59
2022/03/06 04:24:36;;;;;;;9.80;8.67;;;;;;;;;;5112633;28;20405;-59
2022/03/06 04:27:02;;;;;;;12.30;9.50;;;;;;;;;;5112609;28;20862;-59
2022/03/06 04:29:30;;;;;;;10.90;8.63;;;;;;;;;;5112570;28;20405;-61
2022/03/06 04:31:56;;;;;;;11.90;8.77;;;;;;;;;;5111452;28;20416;-60
2022/03/06 04:34:22;;;;;;;11.53;8.20;;;;;;;;;;5111395;28;20413;-58
2022/03/06 04:36:48;;;;;;;12.17;8.70;;;;;;;;;;5112584;28;20405;-61
2022/03/06 04:39:14;;;;;;;8.93;8.03;;;;;;;;;;5111177;28;20936;-60
2022/03/06 04:41:40;;;;;;;10.03;8.40;;;;;;;;;;5112458;28;20507;-56
2022/03/06 04:44:06;;;;;;;17.43;11.30;;;;;;;;;;5112442;28;20801;-57
2022/03/06 04:46:33;;;;;;;15.00;8.83;;;;;;;;;;5112383;28;20488;-58
2022/03/06 04:48:59;;;;;;;12.23;8.90;;;;;;;;;;5112347;28;20786;-59
2022/03/06 04:51:25;;;;;;;11.50;8.90;;;;;;;;;;5112784;28;20397;-61
2022/03/06 04:53:50;;;;;;;12.33;8.80;;;;;;;;;;5112305;28;20739;-60
2022/03/06 04:56:17;;;;;;;10.63;8.50;;;;;;;;;;5112029;28;20492;-60
2022/03/06 04:58:43;;;;;;;9.93;8.40;;;;;;;;;;5112325;28;20430;-57
2022/03/06 05:01:09;;;;;;;10.27;8.60;;;;;;;;;;5112203;28;20401;-59
2022/03/06 05:03:35;;;;;;;10.50;8.90;;;;;;;;;;5110999;28;20936;-58
2022/03/06 05:06:01;;;;;;;9.83;8.83;;;;;;;;;;5112326;28;20869;-61
2022/03/06 05:08:27;;;;;;;18.17;8.80;;;;;;;;;;5111062;28;20505;-56
2022/03/06 05:10:54;;;;;;;12.30;8.50;;;;;;;;;;5112351;28;20413;-53
2022/03/06 05:13:21;;;;;;;10.93;8.70;;;;;;;;;;5111891;28;20452;-60
2022/03/06 05:15:47;;;;;;;11.13;9.07;;;;;;;;;;5112037;28;20468;-57
2022/03/06 05:18:13;;;;;;;11.20;9.23;;;;;;;;;;5111973;28;20401;-58
2022/03/06 05:20:42;;;;;;;12.70;9.27;;;;;;;;;;5110822;28;20419;-59
2022/03/06 05:23:08;;;;;;;12.50;8.43;;;;;;;;;;5112079;28;20508;-60
2022/03/06 05:25:34;;;;;;;11.57;8.67;;;;;;;;;;5111946;28;20894;-60
2022/03/06 05:28:01;;;;;;;10.00;8.97;;;;;;;;;;5112008;28;20418;-60
2022/03/06 05:30:27;;;;;;;10.67;9.00;;;;;;;;;;5111792;28;20416;-56
2022/03/06 05:32:53;;;;;;;9.67;8.30;;;;;;;;;;5112233;28;20412;-54
2022/03/06 05:35:19;;;;;;;12.20;9.27;;;;;;;;;;5114607;28;20460;-59
2022/03/06 05:37:45;;;;;;;10.73;9.00;;;;;;;;;;5115730;28;20762;-52
2022/03/06 05:40:11;;;;;;;11.67;9.30;;;;;;;;;;5115768;28;20404;-55
2022/03/06 05:42:37;;;;;;;13.47;9.20;;;;;;;;;;5115630;28;20881;-59
2022/03/06 05:45:04;;;;;;;11.93;8.63;;;;;;;;;;5115641;28;20405;-58
2022/03/06 05:47:30;;;;;;;13.03;9.97;;;;;;;;;;5115478;28;20408;-53
2022/03/06 05:49:56;;;;;;;13.43;9.73;;;;;;;;;;5115797;28;20401;-58
2022/03/06 05:52:22;;;;;;;14.17;9.70;;;;;;;;;;5114282;28;20940;-57
2022/03/06 05:54:48;;;;;;;10.90;9.00;;;;;;;;;;5115349;28;20456;-60
2022/03/06 05:57:14;;;;;;;12.23;9.30;;;;;;;;;;5115421;28;20424;-60
2022/03/06 05:59:40;;;;;;;13.80;9.63;;;;;;;;;;5113963;28;20462;-58
2022/03/06 06:02:06;;;;;;;11.20;9.70;;;;;;;;;;5115393;28;20417;-55
2022/03/06 06:04:32;;;;;;;13.03;10.17;;;;;;;;;;5114015;28;20956;-60
2022/03/06 06:06:58;;;;;;;13.23;9.17;;;;;;;;;;5115164;28;20405;-60
2022/03/06 06:09:25;;;;;;;13.43;10.00;;;;;;;;;;5115435;28;20412;-61
2022/03/06 06:11:53;;;;;;;15.20;9.50;;;;;;;;;;5115117;28;20473;-60
2022/03/06 06:14:20;;;;;;;12.80;9.70;;;;;;;;;;5114914;28;20448;-61
2022/03/06 06:16:46;;;;;;;15.23;10.13;;;;;;;;;;5115036;28;20508;-58
2022/03/06 06:19:12;;;;;;;10.57;8.80;;;;;;;;;;5114914;28;20412;-58
2022/03/06 06:21:42;;;;;;;12.40;9.73;;;;;;;;;;5115000;28;20405;-59
2022/03/06 06:24:09;;;;;;;14.57;9.70;;;;;;;;;;5114914;28;20762;-57
2022/03/06 06:26:35;;;;;;;14.87;9.70;;;;;;;;;;5114871;28;20514;-61
2022/03/06 06:29:01;;;;;;;11.47;9.47;;;;;;;;;;5114657;28;20445;-60
2022/03/06 06:31:27;;;;;;;13.13;9.37;;;;;;;;;;5114742;28;20554;-55
2022/03/06 06:33:54;;;;;;;17.00;11.10;;;;;;;;;;5114780;28;20428;-60
2022/03/06 06:36:21;;;;;;;11.83;9.70;;;;;;;;;;5114548;28;20526;-59
2022/03/06 06:38:47;;;;;;;13.20;9.60;;;;;;;;;;5114691;28;20405;-58
2022/03/06 06:41:13;;;;;;;10.30;9.07;;;;;;;;;;5114709;28;20412;-58
2022/03/06 06:43:41;;;;;;;12.63;9.80;;;;;;;;;;5114556;28;20458;-58
2022/03/06 06:46:07;;;;;;;10.77;9.67;;;;;;;;;;5114036;28;20405;-59
2022/03/06 06:48:33;;;;;;;14.70;9.83;;;;;;;;;;5114579;28;20405;-61
2022/03/06 06:50:59;;;;;;;14.77;9.97;;;;;;;;;;5113074;28;20466;-57
2022/03/06 06:53:25;;;;;;;13.07;10.40;;;;;;;;;;5114378;28;20416;-58
2022/03/06 06:55:51;;;;;;;28.50;12.90;;;;;;;;;;5114513;28;20463;-58
2022/03/06 06:58:17;;;;;;;31.37;11.70;;;;;;;;;;5114136;28;20745;-58
2022/03/06 07:00:43;;;;;;;13.80;10.23;;;;;;;;;;5114057;28;20460;-55
2022/03/06 07:03:09;;;;;;;13.30;10.13;;;;;;;;;;5114185;28;20400;-55
2022/03/06 07:05:36;;;;;;;14.23;10.17;;;;;;;;;;5114100;28;20413;-59
2022/03/06 07:08:02;;;;;;;11.77;9.57;;;;;;;;;;5114132;28;20412;-55
2022/03/06 07:10:28;;;;;;;11.40;9.80;;;;;;;;;;5113949;28;20416;-57
2022/03/06 07:12:55;;;;;;;14.00;9.60;;;;;;;;;;5114134;28;20429;-54
2022/03/06 07:15:22;;;;;;;16.70;10.00;;;;;;;;;;5113605;28;20461;-57
2022/03/06 07:17:48;;;;;;;13.50;9.90;;;;;;;;;;5113750;28;20460;-58
2022/03/06 07:20:14;;;;;;;10.13;8.83;;;;;;;;;;5113941;28;20538;-54
2022/03/06 07:22:40;;;;;;;12.67;9.40;;;;;;;;;;5113665;28;20493;-60
2022/03/06 07:25:07;;;;;;;14.13;10.03;;;;;;;;;;5113734;28;20421;-64
2022/03/06 07:27:33;;;;;;;20.23;12.30;;;;;;;;;;5113805;28;20404;-59
2022/03/06 07:29:59;;;;;;;12.77;10.40;;;;;;;;;;5113594;28;20392;-58
2022/03/06 07:32:25;;;;;;;15.40;11.23;;;;;;;;;;5113743;28;20397;-52
2022/03/06 07:34:54;;;;;;;12.67;9.70;;;;;;;;;;5113374;28;20466;-53
2022/03/06 07:37:20;;;;;;;12.83;10.87;;;;;;;;;;5112045;28;20909;-52
2022/03/06 07:39:46;;;;;;;15.80;10.53;;;;;;;;;;5113335;28;21211;-52
2022/03/06 07:42:13;;;;;;;16.23;11.53;;;;;;;;;;5113285;28;20478;-56
2022/03/06 07:44:39;;;;;;;22.20;11.87;;;;;;;;;;5113178;28;20680;-53
2022/03/06 07:47:05;;;;;;;12.73;9.80;;;;;;;;;;5113094;28;20436;-52
2022/03/06 07:49:31;;;;;;;25.10;14.33;;;;;;;;;;5113062;28;20784;-52
2022/03/06 07:51:57;;;;;;;15.57;10.50;;;;;;;;;;5113081;28;20416;-50
2022/03/06 07:54:23;;;;;;;17.97;11.90;;;;;;;;;;5113041;28;20405;-56
2022/03/06 07:56:49;;;;;;;15.70;10.30;;;;;;;;;;5112124;28;20816;-64
2022/03/06 07:59:15;;;;;;;13.20;10.23;;;;;;;;;;5112797;28;20412;-55
2022/03/06 08:01:41;;;;;;;14.67;10.80;;;;;;;;;;5113005;28;20764;-58
2022/03/06 08:04:07;;;;;;;13.70;10.17;;;;;;;;;;5111419;28;20452;-54
2022/03/06 08:06:34;;;;;;;14.10;10.37;;;;;;;;;;5112772;28;20451;-59
2022/03/06 08:09:02;;;;;;;12.63;10.20;;;;;;;;;;5111532;28;20805;-54
2022/03/06 08:11:29;;;;;;;13.07;10.30;;;;;;;;;;5112683;28;20543;-52
2022/03/06 08:13:55;;;;;;;15.00;10.50;;;;;;;;;;5112792;28;20457;-55
2022/03/06 08:16:21;;;;;;;13.07;10.17;;;;;;;;;;5111283;28;20492;-50
2022/03/06 08:19:05;;;;;;;15.87;10.90;;;;;;;;;;5171920;27;20481;-58
2022/03/06 08:21:31;;;;;;;14.50;11.40;;;;;;;;;;5151069;27;20407;-57
2022/03/06 08:24:00;;;;;;;14.30;10.77;;;;;;;;;;5150845;27;20904;-58
2022/03/06 08:26:26;;;;;;;17.10;11.23;;;;;;;;;;5150886;27;20407;-53
2022/03/06 08:28:53;;;;;;;14.13;10.90;;;;;;;;;;5150812;27;20468;-58
2022/03/06 08:31:19;;;;;;;12.67;10.70;;;;;;;;;;5151141;27;20755;-59
2022/03/06 08:33:45;;;;;;;14.53;10.80;;;;;;;;;;5150710;27;20455;-58
2022/03/06 08:36:11;;;;;;;13.90;11.50;;;;;;;;;;5150665;27;20459;-53
2022/03/06 08:38:37;;;;;;;11.70;10.50;;;;;;;;;;5150556;27;20564;-57
2022/03/06 08:41:03;;;;;;;12.30;10.17;;;;;;;;;;5132099;27;20411;-57
2022/03/06 08:43:29;;;;;;;14.20;11.07;;;;;;;;;;5150604;27;20426;-56
2022/03/06 08:45:55;;;;;;;13.90;11.00;;;;;;;;;;5132233;27;20914;-58
2022/03/06 08:48:21;;;;;;;11.20;10.10;;;;;;;;;;5150474;27;20415;-56
2022/03/06 08:50:50;;;;;;;12.80;10.10;;;;;;;;;;5150589;27;20421;-60
2022/03/06 08:53:17;;;;;;;11.97;10.03;;;;;;;;;;5150422;27;20483;-54
2022/03/06 08:55:43;;;;;;;13.73;9.90;;;;;;;;;;5150416;27;20418;-57
2022/03/06 08:58:09;;;;;;;13.77;10.53;;;;;;;;;;5150387;27;20994;-63
2022/03/06 09:00:35;;;;;;;12.50;10.20;;;;;;;;;;5150269;27;20402;-57
2022/03/06 09:03:01;;;;;;;11.77;9.43;;;;;;;;;;5150243;27;20411;-60
2022/03/06 09:05:28;;;;;;;13.17;10.13;;;;;;;;;;5150092;27;20497;-59
2022/03/06 09:07:54;;;;;;;12.63;9.87;;;;;;;;;;5132104;27;20415;-55
2022/03/06 09:10:20;;;;;;;12.90;10.00;;;;;;;;;;5131349;27;20801;-61
2022/03/06 09:12:46;;;;;;;11.57;9.87;;;;;;;;;;5149838;27;20407;-58
2022/03/06 09:15:12;;;;;;;12.47;9.67;;;;;;;;;;5150150;27;20400;-56
2022/03/06 09:17:38;;;;;;;10.73;9.63;;;;;;;;;;5149684;27;20520;-58
2022/03/06 09:20:05;;;;;;;12.70;10.40;;;;;;;;;;5131225;27;20445;-57
2022/03/06 09:22:31;;;;;;;12.87;10.60;;;;;;;;;;5149860;27;20494;-59
2022/03/06 09:24:57;;;;;;;12.20;10.10;;;;;;;;;;5149689;27;21014;-60
2022/03/06 09:27:26;;;;;;;11.50;10.03;;;;;;;;;;5149856;27;20570;-60
2022/03/06 09:29:52;;;;;;;14.87;10.87;;;;;;;;;;5138975;27;20400;-59
2022/03/06 09:32:18;;;;;;;12.20;10.63;;;;;;;;;;5135879;27;20418;-61
2022/03/06 09:34:44;;;;;;;13.63;10.23;;;;;;;;;;5117407;27;20412;-58
2022/03/06 09:37:10;;;;;;;15.23;9.90;;;;;;;;;;5117102;27;20451;-56
2022/03/06 09:39:36;;;;;;;12.33;9.83;;;;;;;;;;5135483;27;20567;-57
2022/03/06 09:42:05;;;;;;;13.00;10.13;;;;;;;;;;5135770;27;20392;-54
2022/03/06 09:44:36;;;;;;;18.60;10.30;;;;;;;;;;5135597;27;20408;-56
2022/03/06 09:47:05;;;;;;;14.63;9.07;;;;;;;;;;5116728;27;20947;-59
2022/03/06 09:49:31;;;;;;;13.83;10.60;;;;;;;;;;5135403;27;20492;-58
2022/03/06 09:51:57;;;;;;;12.40;10.20;;;;;;;;;;5135332;27;20451;-59
2022/03/06 09:54:23;;;;;;;14.47;10.43;;;;;;;;;;5135618;27;20433;-64
2022/03/06 09:56:49;;;;;;;12.77;10.80;;;;;;;;;;5135353;27;20412;-59
2022/03/06 09:59:16;;;;;;;12.23;9.80;;;;;;;;;;5135207;27;20455;-59
2022/03/06 10:01:42;;;;;;;14.80;10.70;;;;;;;;;;5135217;27;20403;-57
2022/03/06 10:04:40;;;;;;;11.90;9.87;;;;;;;;;;5135224;27;20468;-57
2022/03/06 10:07:07;;;;;;;12.90;11.13;;;;;;;;;;5079139;27;20432;-60
2022/03/06 10:09:54;;;;;;;11.73;10.50;;;;;;;;;;5135068;27;20464;-61
2022/03/06 10:12:21;;;;;;;12.30;9.90;;;;;;;;;;5135007;27;20407;-61
2022/03/06 10:14:48;;;;;;;10.87;9.73;;;;;;;;;;5135236;27;20415;-61
2022/03/06 10:17:19;;;;;;;10.27;9.07;;;;;;;;;;5134499;27;20475;-59
2022/03/06 10:20:09;;;;;;;13.33;10.20;;;;;;;;;;5116286;27;20404;-57
2022/03/06 10:22:40;;;;;;;13.63;9.60;;;;;;;;;;5116752;27;20781;-60
2022/03/06 10:25:07;;;;;;;15.23;11.00;;;;;;;;;;5116281;27;20444;-60
2022/03/06 10:27:44;;;;;;;13.23;9.90;;;;;;;;;;5134660;27;20408;-56
2022/03/06 10:30:25;;;;;;;14.30;10.90;;;;;;;;;;5134737;27;20422;-61
2022/03/06 10:32:51;;;;;;;11.67;9.47;;;;;;;;;;5134795;27;20526;-55
2022/03/06 10:35:18;;;;;;;11.03;9.60;;;;;;;;;;5134587;27;20388;-59
2022/03/06 10:37:46;;;;;;;11.87;9.03;;;;;;;;;;5134479;27;20459;-56
2022/03/06 10:40:14;;;;;;;10.97;9.23;;;;;;;;;;5133903;27;20402;-56
2022/03/06 10:42:43;;;;;;;13.10;9.60;;;;;;;;;;5134213;27;20400;-59
2022/03/06 10:45:24;;;;;;;11.27;9.80;;;;;;;;;;5134434;27;20411;-58
2022/03/06 10:47:50;;;;;;;11.03;9.70;;;;;;;;;;5134506;27;20426;-54
2022/03/06 10:50:25;;;;;;;13.47;9.43;;;;;;;;;;5134339;27;20407;-58
2022/03/06 10:52:53;;;;;;;13.20;10.50;;;;;;;;;;5115960;27;20498;-57
2022/03/06 10:55:31;;;;;;;15.23;9.87;;;;;;;;;;5134314;27;20415;-56
2022/03/06 10:57:57;;;;;;;10.53;9.43;;;;;;;;;;5133953;27;20463;-57
2022/03/06 11:00:24;;;;;;;12.73;10.10;;;;;;;;;;5134401;27;20443;-59
2022/03/06 11:02:50;;;;;;;11.87;9.47;;;;;;;;;;5134021;27;20411;-58
2022/03/06 11:05:16;;;;;;;11.50;9.60;;;;;;;;;;5134032;27;20526;-57
2022/03/06 11:07:42;;;;;;;10.60;9.37;;;;;;;;;;5134108;27;20400;-58
2022/03/06 11:10:09;;;;;;;12.13;9.10;;;;;;;;;;5133995;27;20412;-52
2022/03/06 11:12:36;;;;;;;12.20;8.60;;;;;;;;;;5133926;27;20461;-52
2022/03/06 11:15:03;;;;;;;9.60;8.63;;;;;;;;;;5133915;27;20408;-57
2022/03/06 11:17:32;;;;;;;19.10;9.40;;;;;;;;;;5133675;27;20471;-58
2022/03/06 11:19:58;;;;;;;13.77;9.70;;;;;;;;;;5133694;27;20419;-58
2022/03/06 11:22:47;;;;;;;9.57;8.27;;;;;;;;;;5134080;27;20812;-59
2022/03/06 11:25:17;;;;;;;11.50;9.00;;;;;;;;;;5115158;27;20416;-54
2022/03/06 11:28:01;;;;;;;12.30;9.73;;;;;;;;;;5133129;27;20435;-55
2022/03/06 11:30:27;;;;;;;9.93;8.37;;;;;;;;;;5133467;27;20408;-58
2022/03/06 11:33:03;;;;;;;11.57;8.50;;;;;;;;;;5133610;27;20407;-55
2022/03/06 11:35:45;;;;;;;11.20;9.33;;;;;;;;;;5133600;27;20464;-61
2022/03/06 11:38:17;;;;;;;11.80;8.50;;;;;;;;;;5133437;27;20870;-53
2022/03/06 11:40:50;;;;;;;9.93;8.40;;;;;;;;;;5133373;27;20404;-55
2022/03/06 11:43:38;;;;;;;10.40;8.00;;;;;;;;;;5133440;27;21438;-51
2022/03/06 11:46:25;;;;;;;9.50;7.70;;;;;;;;;;5114870;27;20423;-56
2022/03/06 11:48:51;;;;;;;12.00;7.73;;;;;;;;;;5133050;27;20414;-54
2022/03/06 11:51:20;;;;;;;10.60;8.00;;;;;;;;;;5133200;27;20416;-58
2022/03/06 11:53:46;;;;;;;11.50;8.67;;;;;;;;;;5133251;27;20484;-53
2022/03/06 11:56:30;;;;;;;12.20;9.47;;;;;;;;;;5133067;27;20415;-55
2022/03/06 11:58:57;;;;;;;12.70;8.30;;;;;;;;;;5133264;27;20467;-55
2022/03/06 12:01:27;;;;;;;9.23;8.17;;;;;;;;;;5114741;27;20412;-55
2022/03/06 12:04:00;;;;;;;13.63;8.30;;;;;;;;;;5133195;27;20806;-51
2022/03/06 12:06:27;;;;;;;10.57;8.53;;;;;;;;;;5133034;27;20404;-55
2022/03/06 12:08:54;;;;;;;15.77;9.90;;;;;;;;;;5133305;27;20415;-54
2022/03/06 12:11:23;;;;;;;14.10;8.40;;;;;;;;;;5132980;27;20399;-54
2022/03/06 12:13:50;;;;;;;12.30;8.20;;;;;;;;;;5114942;28;20930;-52
2022/03/06 12:16:16;;;;;;;12.30;9.50;;;;;;;;;;5133104;28;20491;-53
2022/03/06 12:19:05;;;;;;;9.97;8.20;;;;;;;;;;5132752;28;20480;-55
2022/03/06 12:21:37;;;;;;;12.13;8.90;;;;;;;;;;5119783;28;20485;-55
2022/03/06 12:24:10;;;;;;;12.50;7.77;;;;;;;;;;5114684;28;20420;-55
2022/03/06 12:26:43;;;;;;;9.63;7.73;;;;;;;;;;5114340;28;20473;-53
2022/03/06 12:29:10;;;;;;;9.20;7.93;;;;;;;;;;5132755;28;20500;-56
2022/03/06 12:31:38;;;;;;;8.40;6.63;;;;;;;;;;5132891;28;20468;-54
2022/03/06 12:34:27;;;;;;;7.57;6.80;;;;;;;;;;5114443;28;20841;-58
2022/03/06 12:36:54;;;;;;;11.80;8.83;;;;;;;;;;5132612;28;20443;-54
2022/03/06 12:39:20;;;;;;;10.57;7.63;;;;;;;;;;5132684;28;20761;-57
2022/03/06 12:41:46;;;;;;;7.10;6.50;;;;;;;;;;5132570;28;20435;-53
2022/03/06 12:44:13;;;;;;;10.03;7.47;;;;;;;;;;5132790;28;20408;-60
2022/03/06 12:46:39;;;;;;;8.97;6.70;;;;;;;;;;5132732;28;20443;-57
2022/03/06 12:49:05;;;;;;;7.47;6.73;;;;;;;;;;5132770;28;20433;-54
2022/03/06 12:51:37;;;;;;;8.63;6.80;;;;;;;;;;5132619;28;20495;-59
2022/03/06 12:54:04;;;;;;;9.20;7.33;;;;;;;;;;5132797;28;20750;-56
2022/03/06 12:56:38;;;;;;;8.80;6.80;;;;;;;;;;5132808;28;20404;-53
2022/03/06 12:59:15;;;;;;;10.30;6.43;;;;;;;;;;5132825;28;20471;-54
2022/03/06 13:01:42;;;;;;;7.00;6.40;;;;;;;;;;5132998;28;20494;-55
2022/03/06 13:04:08;;;;;;;7.77;7.00;;;;;;;;;;5133637;27;20436;-57
2022/03/06 13:06:35;;;;;;;8.00;6.63;;;;;;;;;;5136688;27;20404;-53
2022/03/06 13:09:01;;;;;;;7.00;6.30;;;;;;;;;;5136803;27;20476;-54
2022/03/06 13:11:28;;;;;;;7.17;6.47;;;;;;;;;;5136530;27;20883;-57
2022/03/06 13:14:04;;;;;;;7.90;7.10;;;;;;;;;;5118274;27;20427;-56
2022/03/06 13:16:30;;;;;;;8.17;7.33;;;;;;;;;;5136523;27;20408;-55
2022/03/06 13:19:00;;;;;;;7.00;6.30;;;;;;;;;;5117852;27;20895;-57
2022/03/06 13:21:26;;;;;;;7.13;6.53;;;;;;;;;;5136610;27;20456;-55
2022/03/06 13:23:58;;;;;;;11.03;6.60;;;;;;;;;;5136384;27;20508;-57
2022/03/06 13:26:24;;;;;;;9.50;7.20;;;;;;;;;;5136173;27;20400;-58
2022/03/06 13:28:50;;;;;;;6.93;6.23;;;;;;;;;;5135991;27;20883;-59
2022/03/06 13:31:16;;;;;;;8.20;7.30;;;;;;;;;;5136100;27;20499;-58
2022/03/06 13:33:45;;;;;;;9.40;8.03;;;;;;;;;;5117727;27;20462;-57
2022/03/06 13:36:15;;;;;;;10.33;7.60;;;;;;;;;;5135999;27;20952;-55
2022/03/06 13:38:41;;;;;;;11.80;7.97;;;;;;;;;;5136011;27;20951;-59
2022/03/06 13:41:16;;;;;;;11.50;7.73;;;;;;;;;;5117308;27;20407;-60
2022/03/06 13:43:47;;;;;;;7.70;6.50;;;;;;;;;;5115009;27;20424;-56
2022/03/06 13:46:15;;;;;;;5.57;5.17;;;;;;;;;;5135710;27;20411;-54
2022/03/06 13:48:41;;;;;;;6.37;5.53;;;;;;;;;;5130552;27;20427;-54
2022/03/06 13:51:17;;;;;;;4.80;4.40;;;;;;;;;;5117041;27;20408;-55
2022/03/06 13:53:53;;;;;;;6.53;5.93;;;;;;;;;;5135526;27;20428;-57
2022/03/06 13:56:27;;;;;;;5.70;5.20;;;;;;;;;;5135500;27;20430;-58
2022/03/06 13:58:53;;;;;;;6.30;5.70;;;;;;;;;;5135599;27;20871;-60
2022/03/06 14:01:20;;;;;;;6.37;5.70;;;;;;;;;;5135544;27;20759;-55
2022/03/06 14:03:49;;;;;;;6.80;6.20;;;;;;;;;;5135452;27;20549;-57
2022/03/06 14:06:15;;;;;;;5.50;5.10;;;;;;;;;;5135382;27;20760;-53
2022/03/06 14:08:42;;;;;;;6.90;5.50;;;;;;;;;;5117121;27;20431;-58
2022/03/06 14:11:09;;;;;;;6.60;5.90;;;;;;;;;;5135530;27;20407;-55
2022/03/06 14:13:39;;;;;;;8.97;6.33;;;;;;;;;;5135275;27;20923;-59
2022/03/06 14:16:05;;;;;;;6.90;6.07;;;;;;;;;;5135099;27;20455;-57
2022/03/06 14:18:38;;;;;;;7.77;5.47;;;;;;;;;;5134870;27;20878;-56
2022/03/06 14:21:24;;;;;;;6.80;6.17;;;;;;;;;;5135131;27;20408;-60
2022/03/06 14:23:52;;;;;;;6.10;5.40;;;;;;;;;;5116524;27;20477;-57
2022/03/06 14:26:25;;;;;;;5.33;4.93;;;;;;;;;;5135079;27;20842;-59
2022/03/06 14:28:52;;;;;;;5.70;5.20;;;;;;;;;;5135293;27;20411;-57